createdAt,value
2022-08-16T00:01:40.634Z,50.30
2022-08-16T00:04:09.707Z,50.25
2022-08-16T00:06:39.488Z,50.22
2022-08-16T00:09:06.787Z,50.26
2022-08-16T00:11:33.980Z,50.14
2022-08-16T00:14:01.420Z,50.23
2022-08-16T00:17:00.987Z,50.16
2022-08-16T00:19:24.895Z,50.02
2022-08-16T00:22:10.400Z,49.84
2022-08-16T00:24:40.393Z,49.81
2022-08-16T00:27:17.690Z,49.80
2022-08-16T00:30:08.780Z,49.68
2022-08-16T00:32:39.351Z,49.79
2022-08-16T00:35:14.957Z,49.67
2022-08-16T00:37:58.668Z,49.66
2022-08-16T00:40:34.045Z,49.93
2022-08-16T00:43:19.266Z,50.13
2022-08-16T00:46:22.399Z,50.14
2022-08-16T00:48:49.190Z,50.23
2022-08-16T00:51:19.532Z,50.21
2022-08-16T00:53:49.012Z,50.41
2022-08-16T00:56:20.106Z,50.64
2022-08-16T00:59:06.599Z,51.08
2022-08-16T01:01:35.904Z,51.24
2022-08-16T01:04:05.440Z,51.49
2022-08-16T01:06:49.365Z,51.58
2022-08-16T01:09:25.255Z,51.96
2022-08-16T01:12:01.628Z,51.90
2022-08-16T01:14:31.696Z,52.14
2022-08-16T01:16:58.790Z,52.27
2022-08-16T01:19:36.296Z,52.36
2022-08-16T01:22:49.607Z,52.67
2022-08-16T01:24:59.159Z,53.02
2022-08-16T01:27:31.111Z,53.01
2022-08-16T01:30:20.282Z,52.97
2022-08-16T01:33:01.972Z,52.91
2022-08-16T01:35:36.848Z,53.26
2022-08-16T01:38:19.403Z,53.39
2022-08-16T01:40:47.806Z,53.79
2022-08-16T01:43:15.095Z,53.80
2022-08-16T01:45:43.488Z,54.11
2022-08-16T01:48:19.764Z,54.04
2022-08-16T01:51:09.100Z,54.51
2022-08-16T01:53:40.666Z,54.81
2022-08-16T01:56:23.336Z,54.93
2022-08-16T01:58:55.159Z,55.13
2022-08-16T02:01:25.971Z,55.18
2022-08-16T02:03:53.214Z,55.32
2022-08-16T02:06:34.620Z,55.12
2022-08-16T02:09:05.602Z,55.25
2022-08-16T02:11:48.184Z,55.44
2022-08-16T02:14:22.557Z,55.62
2022-08-16T02:16:56.399Z,55.72
2022-08-16T02:19:23.601Z,56.04
2022-08-16T02:22:07.790Z,56.20
2022-08-16T02:24:40.895Z,56.01
2022-08-16T02:27:08.783Z,56.29
2022-08-16T02:29:35.698Z,56.47
2022-08-16T02:32:50.260Z,56.47
2022-08-16T02:34:50.707Z,56.27
2022-08-16T02:37:24.240Z,56.40
2022-08-16T02:40:11.702Z,56.16
2022-08-16T02:42:38.667Z,55.93
2022-08-16T02:45:07.824Z,55.89
2022-08-16T02:48:01.827Z,55.75
2022-08-16T02:50:54.854Z,55.95
2022-08-16T02:53:12.313Z,56.17
2022-08-16T02:55:40.448Z,56.25
2022-08-16T02:58:09.047Z,56.36
2022-08-16T03:00:36.306Z,56.34
2022-08-16T03:03:05.349Z,56.47
2022-08-16T03:05:37.998Z,56.58
2022-08-16T03:08:51.124Z,56.29
2022-08-16T03:10:54.850Z,56.24
2022-08-16T03:13:26.795Z,56.18
2022-08-16T03:15:53.716Z,56.20
2022-08-16T03:18:34.629Z,56.39
2022-08-16T03:21:10.162Z,56.29
2022-08-16T03:23:41.742Z,56.23
2022-08-16T03:26:11.110Z,56.51
2022-08-16T03:28:38.293Z,56.51
2022-08-16T03:31:07.252Z,56.27
2022-08-16T03:33:35.537Z,56.40
2022-08-16T03:36:30.427Z,56.12
2022-08-16T03:38:55.197Z,55.77
2022-08-16T03:41:25.429Z,55.58
2022-08-16T03:43:58.514Z,55.52
2022-08-16T03:46:45.103Z,55.01
2022-08-16T03:49:18.220Z,54.65
2022-08-16T03:51:52.036Z,54.51
2022-08-16T03:54:28.605Z,54.25
2022-08-16T03:56:58.672Z,54.18
2022-08-16T03:59:29.635Z,54.04
2022-08-16T04:01:59.534Z,53.54
2022-08-16T04:04:33.572Z,53.24
2022-08-16T04:07:05.824Z,52.93
2022-08-16T04:09:41.148Z,52.68
2022-08-16T04:12:11.137Z,52.51
2022-08-16T04:14:57.371Z,52.59
2022-08-16T04:17:26.920Z,52.13
2022-08-16T04:19:58.372Z,51.86
2022-08-16T04:22:27.942Z,51.59
2022-08-16T04:25:00.753Z,51.44
2022-08-16T04:27:34.589Z,51.52
2022-08-16T04:30:10.864Z,51.54
2022-08-16T04:32:49.145Z,51.28
2022-08-16T04:35:20.067Z,51.07
2022-08-16T04:37:54.008Z,50.72
2022-08-16T04:40:27.651Z,50.59
2022-08-16T04:42:56.818Z,50.16
2022-08-16T04:45:35.984Z,49.74
2022-08-16T04:48:08.875Z,49.63
2022-08-16T04:50:45.736Z,49.51
2022-08-16T04:53:16.733Z,49.41
2022-08-16T04:55:53.040Z,49.51
2022-08-16T04:58:45.127Z,49.13
2022-08-16T05:01:11.744Z,49.05
2022-08-16T05:03:41.560Z,48.75
2022-08-16T05:06:09.609Z,48.24
2022-08-16T05:08:37.945Z,48.43
2022-08-16T05:11:22.762Z,48.24
2022-08-16T05:13:50.129Z,48.33
2022-08-16T05:16:24.088Z,48.34
2022-08-16T05:19:01.920Z,48.14
2022-08-16T05:21:38.180Z,47.87
2022-08-16T05:24:09.823Z,47.41
2022-08-16T05:26:43.076Z,47.28
2022-08-16T05:29:15.403Z,47.25
2022-08-16T05:31:59.738Z,47.23
2022-08-16T05:34:26.786Z,46.98
2022-08-16T05:36:58.638Z,46.52
2022-08-16T05:39:33.370Z,46.52
2022-08-16T05:42:04.956Z,46.26
2022-08-16T05:44:33.449Z,46.22
2022-08-16T05:47:01.372Z,46.17
2022-08-16T05:49:38.571Z,46.15
2022-08-16T05:52:10.570Z,45.87
2022-08-16T05:54:46.563Z,45.97
2022-08-16T05:57:17.487Z,45.88
2022-08-16T06:02:40.198Z,45.57
2022-08-16T06:05:24.505Z,45.48
2022-08-16T06:07:59.102Z,45.55
2022-08-16T06:10:33.524Z,45.66
2022-08-16T06:13:04.525Z,45.47
2022-08-16T06:15:32.307Z,45.63
2022-08-16T06:18:00.528Z,45.50
2022-08-16T06:20:35.694Z,45.03
2022-08-16T06:23:33.022Z,44.89
2022-08-16T06:26:07.571Z,44.50
2022-08-16T06:28:37.334Z,44.46
2022-08-16T06:31:12.478Z,44.18
2022-08-16T06:33:44.988Z,43.95
2022-08-16T06:36:15.414Z,43.44
2022-08-16T06:38:55.994Z,43.28
2022-08-16T06:41:49.051Z,43.43
2022-08-16T06:44:40.058Z,42.77
2022-08-16T06:47:24.676Z,42.74
2022-08-16T06:50:28.439Z,42.81
2022-08-16T06:53:01.082Z,42.56
2022-08-16T06:55:43.312Z,42.50
2022-08-16T06:58:22.721Z,42.51
2022-08-16T07:01:09.997Z,41.91
2022-08-16T07:03:55.526Z,41.48
2022-08-16T07:06:31.604Z,40.96
2022-08-16T07:09:09.670Z,40.19
2022-08-16T07:11:46.516Z,39.49
2022-08-16T07:14:27.619Z,39.70
2022-08-16T07:16:58.989Z,39.32
2022-08-16T07:20:01.476Z,39.58
2022-08-16T07:22:47.682Z,39.16
2022-08-16T07:25:05.583Z,39.33
2022-08-16T07:27:33.742Z,39.27
2022-08-16T07:30:45.481Z,39.02
2022-08-16T07:32:55.550Z,38.99
2022-08-16T07:35:23.473Z,38.76
2022-08-16T07:37:51.069Z,38.28
2022-08-16T07:40:59.553Z,38.13
2022-08-16T07:43:24.800Z,37.81
2022-08-16T07:46:01.540Z,37.90
2022-08-16T07:48:31.988Z,38.20
2022-08-16T07:51:00.964Z,38.12
2022-08-16T07:53:32.389Z,38.60
2022-08-16T07:56:04.371Z,37.61
2022-08-16T07:58:38.718Z,37.88
2022-08-16T08:01:12.649Z,37.77
2022-08-16T08:03:49.548Z,37.24
2022-08-16T08:06:29.263Z,37.17
2022-08-16T08:09:02.317Z,36.99
2022-08-16T08:11:29.687Z,36.88
2022-08-16T08:14:03.768Z,36.70
2022-08-16T08:19:26.518Z,34.86
2022-08-16T08:21:59.950Z,35.19
2022-08-16T08:24:59.672Z,35.28
2022-08-16T08:27:33.172Z,34.73
2022-08-16T08:30:48.999Z,34.97
2022-08-16T08:32:59.447Z,35.05
2022-08-16T08:35:30.369Z,34.93
2022-08-16T08:37:58.911Z,34.67
2022-08-16T08:40:31.777Z,33.19
2022-08-16T08:43:11.714Z,33.91
2022-08-16T08:45:52.889Z,33.46
2022-08-16T08:48:34.918Z,32.85
2022-08-16T08:51:09.154Z,32.95
2022-08-16T08:53:47.076Z,32.36
2022-08-16T08:56:34.743Z,32.52
2022-08-16T08:59:23.686Z,31.42
2022-08-16T09:01:58.633Z,31.12
2022-08-16T09:04:31.716Z,31.22
2022-08-16T09:07:01.995Z,30.86
2022-08-16T09:09:33.753Z,30.07
2022-08-16T09:12:07.006Z,30.44
2022-08-16T09:14:50.785Z,30.00
2022-08-16T09:17:51.523Z,29.93
2022-08-16T09:20:17.570Z,29.80
2022-08-16T09:22:51.465Z,28.98
2022-08-16T09:25:26.110Z,28.33
2022-08-16T09:27:57.984Z,28.26
2022-08-16T09:30:42.890Z,27.90
2022-08-16T09:33:19.759Z,28.49
2022-08-16T09:35:47.440Z,27.81
2022-08-16T09:38:31.738Z,27.53
2022-08-16T09:41:00.383Z,27.15
2022-08-16T09:43:58.807Z,26.90
2022-08-16T09:46:33.343Z,26.91
2022-08-16T09:49:03.854Z,26.91
2022-08-16T09:51:36.631Z,26.84
2022-08-16T09:54:04.630Z,27.05
2022-08-16T09:56:32.687Z,26.85
2022-08-16T09:59:05.230Z,26.50
2022-08-16T10:01:36.583Z,26.48
2022-08-16T10:04:07.494Z,25.90
2022-08-16T10:06:52.697Z,25.38
2022-08-16T10:09:20.390Z,25.16
2022-08-16T10:12:11.599Z,24.73
2022-08-16T10:14:46.413Z,25.28
2022-08-16T10:17:13.657Z,24.76
2022-08-16T10:19:41.703Z,25.67
2022-08-16T10:22:12.639Z,25.64
2022-08-16T10:24:40.608Z,24.97
2022-08-16T10:27:29.727Z,24.88
2022-08-16T10:30:00.144Z,24.83
2022-08-16T10:32:32.231Z,24.49
2022-08-16T10:34:59.857Z,24.67
2022-08-16T10:37:32.697Z,24.88
2022-08-16T10:40:29.520Z,24.84
2022-08-16T10:42:55.660Z,24.21
2022-08-16T10:45:22.987Z,24.07
2022-08-16T10:48:00.507Z,24.62
2022-08-16T10:50:30.326Z,24.67
2022-08-16T10:52:59.435Z,24.13
2022-08-16T10:55:45.113Z,24.62
2022-08-16T10:58:16.936Z,24.41
2022-08-16T11:00:46.279Z,24.40
2022-08-16T11:06:03.277Z,23.86
2022-08-16T11:08:36.613Z,23.01
2022-08-16T11:11:14.174Z,22.79
2022-08-16T11:14:06.104Z,22.53
2022-08-16T11:19:22.662Z,24.11
2022-08-16T11:24:44.746Z,24.13
2022-08-16T11:27:22.858Z,23.35
2022-08-16T11:29:51.947Z,22.76
2022-08-16T11:32:20.182Z,21.96
2022-08-16T11:35:10.795Z,21.82
2022-08-16T11:38:06.113Z,21.73
2022-08-16T11:40:32.532Z,20.96
2022-08-16T11:43:01.471Z,20.79
2022-08-16T11:45:33.953Z,22.81
2022-08-16T11:48:07.492Z,23.67
2022-08-16T11:50:40.967Z,24.97
2022-08-16T11:53:08.543Z,26.10
2022-08-16T11:55:37.988Z,25.52
2022-08-16T11:58:07.400Z,25.56
2022-08-16T12:00:50.700Z,26.11
2022-08-16T12:03:18.640Z,27.12
2022-08-16T12:05:46.579Z,26.66
2022-08-16T12:08:19.770Z,24.82
2022-08-16T12:10:53.006Z,23.29
2022-08-16T12:13:21.267Z,22.47
2022-08-16T12:15:48.360Z,21.75
2022-08-16T12:18:20.942Z,21.37
2022-08-16T12:20:48.865Z,20.88
2022-08-16T12:23:15.932Z,20.81
2022-08-16T12:25:44.376Z,20.98
2022-08-16T12:28:11.696Z,20.40
2022-08-16T12:30:40.314Z,20.48
2022-08-16T12:33:11.669Z,20.08
2022-08-16T12:35:39.225Z,19.64
2022-08-16T12:38:35.806Z,19.94
2022-08-16T12:40:55.702Z,20.06
2022-08-16T12:43:25.618Z,19.31
2022-08-16T12:45:55.913Z,19.33
2022-08-16T12:48:43.043Z,19.56
2022-08-16T12:51:19.381Z,19.36
2022-08-16T12:53:47.585Z,19.41
2022-08-16T12:56:14.798Z,19.19
2022-08-16T12:58:50.012Z,18.61
2022-08-16T13:01:19.521Z,19.73
2022-08-16T13:04:03.295Z,19.51
2022-08-16T13:06:37.965Z,19.38
2022-08-16T13:09:18.387Z,18.91
2022-08-16T13:11:55.133Z,18.21
2022-08-16T13:14:31.206Z,18.36
2022-08-16T13:17:01.122Z,17.86
2022-08-16T13:19:55.958Z,17.56
2022-08-16T13:22:18.627Z,18.34
2022-08-16T13:24:46.973Z,18.51
2022-08-16T13:27:14.545Z,18.05
2022-08-16T13:29:44.820Z,18.35
2022-08-16T13:32:39.797Z,17.54
2022-08-16T13:34:59.025Z,19.96
2022-08-16T13:37:32.384Z,22.23
2022-08-16T13:40:07.461Z,22.34
2022-08-16T13:42:41.199Z,21.67
2022-08-16T13:45:15.493Z,20.86
2022-08-16T13:47:44.631Z,20.13
2022-08-16T13:50:18.216Z,19.16
2022-08-16T13:52:58.893Z,18.72
2022-08-16T13:55:26.813Z,18.34
2022-08-16T13:58:35.352Z,17.87
2022-08-16T14:00:52.791Z,18.24
2022-08-16T14:03:38.785Z,17.45
2022-08-16T14:06:10.748Z,17.80
2022-08-16T14:08:41.918Z,17.44
2022-08-16T14:11:12.530Z,17.85
2022-08-16T14:13:40.002Z,17.72
2022-08-16T14:16:12.467Z,17.90
2022-08-16T14:18:53.386Z,18.28
2022-08-16T14:24:07.897Z,18.72
2022-08-16T14:26:50.379Z,18.56
2022-08-16T14:31:53.577Z,18.86
2022-08-16T14:34:21.619Z,18.79
2022-08-16T14:36:53.347Z,19.54
2022-08-16T14:39:22.191Z,19.57
2022-08-16T14:41:53.678Z,19.36
2022-08-16T14:44:23.655Z,19.25
2022-08-16T14:46:53.016Z,19.15
2022-08-16T14:49:20.221Z,19.34
2022-08-16T14:51:48.915Z,19.40
2022-08-16T14:54:16.038Z,19.64
2022-08-16T14:59:34.437Z,19.94
2022-08-16T15:02:17.293Z,20.19
2022-08-16T15:05:11.182Z,20.71
2022-08-16T15:07:40.213Z,20.78
2022-08-16T15:10:21.723Z,21.18
2022-08-16T15:12:56.249Z,21.07
2022-08-16T15:15:26.943Z,21.07
2022-08-16T15:17:56.742Z,21.31
2022-08-16T15:20:29.412Z,21.75
2022-08-16T15:22:57.537Z,22.01
2022-08-16T15:25:29.292Z,22.37
2022-08-16T15:28:05.387Z,22.99
2022-08-16T15:30:58.347Z,23.12
2022-08-16T15:33:27.673Z,23.83
2022-08-16T15:35:55.411Z,25.20
2022-08-16T15:38:57.260Z,26.42
2022-08-16T15:41:27.636Z,27.91
2022-08-16T15:44:05.183Z,29.05
2022-08-16T15:46:54.593Z,30.00
2022-08-16T15:49:23.016Z,30.36
2022-08-16T15:51:54.111Z,31.41
2022-08-16T15:54:30.728Z,31.84
2022-08-16T15:57:09.649Z,32.79
2022-08-16T15:59:49.065Z,33.03
2022-08-16T16:02:29.395Z,33.45
2022-08-16T16:05:04.216Z,33.47
2022-08-16T16:07:56.676Z,34.41
2022-08-16T16:10:29.867Z,34.91
2022-08-16T16:12:58.467Z,35.05
2022-08-16T16:15:29.472Z,35.22
2022-08-16T16:17:59.313Z,35.85
2022-08-16T16:20:32.557Z,35.80
2022-08-16T16:23:02.681Z,36.13
2022-08-16T16:25:34.101Z,36.46
2022-08-16T16:28:01.262Z,36.78
2022-08-16T16:30:33.043Z,36.93
2022-08-16T16:33:05.275Z,37.04
2022-08-16T16:35:35.028Z,36.79
2022-08-16T16:38:02.038Z,37.26
2022-08-16T16:40:54.241Z,37.88
2022-08-16T16:43:25.751Z,38.11
2022-08-16T16:45:55.729Z,38.25
2022-08-16T16:48:22.710Z,38.51
2022-08-16T16:50:58.233Z,38.73
2022-08-16T16:53:31.631Z,38.96
2022-08-16T16:55:59.013Z,39.15
2022-08-16T16:58:53.364Z,39.64
2022-08-16T17:01:21.362Z,39.63
2022-08-16T17:04:03.945Z,39.55
2022-08-16T17:06:53.261Z,40.09
2022-08-16T17:09:24.667Z,40.09
2022-08-16T17:11:55.329Z,39.79
2022-08-16T17:14:32.964Z,40.18
2022-08-16T17:17:08.342Z,40.43
2022-08-16T17:19:40.324Z,40.40
2022-08-16T17:22:16.001Z,41.06
2022-08-16T17:24:53.981Z,41.29
2022-08-16T17:27:41.090Z,41.22
2022-08-16T17:30:15.033Z,41.79
2022-08-16T17:32:48.791Z,42.01
2022-08-16T17:35:19.509Z,41.83
2022-08-16T17:37:51.937Z,42.05
2022-08-16T17:40:46.818Z,42.23
2022-08-16T17:43:43.877Z,42.43
2022-08-16T17:46:50.851Z,42.69
2022-08-16T17:48:58.859Z,42.80
2022-08-16T17:51:27.730Z,43.01
2022-08-16T17:53:55.084Z,42.96
2022-08-16T17:56:22.109Z,43.31
2022-08-16T17:58:48.927Z,43.66
2022-08-16T18:01:16.077Z,43.68
2022-08-16T18:04:06.741Z,43.83
2022-08-16T18:06:30.298Z,43.90
2022-08-16T18:09:03.769Z,44.28
2022-08-16T18:11:41.173Z,44.04
2022-08-16T18:14:52.067Z,44.39
2022-08-16T18:17:08.786Z,44.45
2022-08-16T18:19:35.815Z,44.08
2022-08-16T18:22:20.955Z,44.30
2022-08-16T18:24:48.299Z,44.59
2022-08-16T18:27:26.426Z,44.72
2022-08-16T18:29:54.068Z,44.92
2022-08-16T18:32:22.077Z,44.95
2022-08-16T18:34:52.798Z,45.26
2022-08-16T18:37:22.659Z,45.41
2022-08-16T18:39:49.639Z,45.45
2022-08-16T18:42:16.577Z,45.75
2022-08-16T18:44:44.000Z,45.66
2022-08-16T18:47:11.111Z,45.87
2022-08-16T18:49:38.456Z,46.07
2022-08-16T18:52:09.082Z,46.01
2022-08-16T18:57:57.178Z,45.91
2022-08-16T19:00:26.311Z,46.01
2022-08-16T19:02:59.271Z,46.28
2022-08-16T19:05:32.280Z,46.42
2022-08-16T19:14:05.540Z,46.40
2022-08-16T19:19:34.836Z,46.48
2022-08-16T19:22:06.696Z,46.67
2022-08-16T19:24:33.899Z,46.71
2022-08-16T19:27:03.521Z,46.57
2022-08-16T19:29:55.730Z,46.75
2022-08-16T19:32:27.076Z,46.69
2022-08-16T19:34:57.383Z,46.70
2022-08-16T19:37:24.654Z,46.76
2022-08-16T19:39:52.206Z,47.17
2022-08-16T19:42:21.161Z,47.07
2022-08-16T19:44:48.546Z,46.93
2022-08-16T19:47:15.769Z,47.30
2022-08-16T19:49:46.602Z,47.47
2022-08-16T19:52:20.471Z,47.44
2022-08-16T19:54:48.057Z,47.68
2022-08-16T19:57:16.830Z,47.91
2022-08-16T19:59:44.162Z,47.81
2022-08-16T20:02:32.611Z,48.19
2022-08-16T20:05:04.448Z,48.13
2022-08-16T20:07:31.492Z,48.43
2022-08-16T20:09:58.805Z,48.68
2022-08-16T20:12:25.927Z,48.76
2022-08-16T20:14:52.788Z,48.99
2022-08-16T20:17:19.677Z,49.52
2022-08-16T20:19:47.450Z,49.28
2022-08-16T20:22:42.196Z,49.60
2022-08-16T20:25:09.847Z,49.87
2022-08-16T20:27:38.100Z,50.15
2022-08-16T20:30:13.422Z,50.27
2022-08-16T20:32:40.675Z,50.15
2022-08-16T20:35:08.807Z,50.42
2022-08-16T20:37:37.429Z,50.45
2022-08-16T20:40:28.370Z,50.60
2022-08-16T20:43:09.621Z,50.95
2022-08-16T20:45:37.345Z,51.29
2022-08-16T20:48:04.761Z,51.23
2022-08-16T20:50:31.789Z,51.49
2022-08-16T20:52:58.747Z,51.86
2022-08-16T20:55:25.842Z,52.03
2022-08-16T20:57:55.831Z,52.04
2022-08-16T21:00:23.090Z,52.17
2022-08-16T21:05:35.234Z,52.41
2022-08-16T21:08:07.016Z,52.51
2022-08-16T21:11:12.615Z,52.83
2022-08-16T21:13:42.868Z,53.03
2022-08-16T21:16:10.431Z,53.40
2022-08-16T21:18:40.174Z,53.38
2022-08-16T21:21:08.387Z,53.59
2022-08-16T21:23:35.467Z,53.69
2022-08-16T21:26:10.689Z,53.94
2022-08-16T21:28:42.885Z,53.88
2022-08-16T21:31:15.666Z,53.98
2022-08-16T21:33:43.466Z,54.02
2022-08-16T21:38:54.557Z,54.06
2022-08-16T21:41:21.707Z,54.27
2022-08-16T21:43:48.608Z,54.49
2022-08-16T21:46:15.967Z,54.86
2022-08-16T21:48:42.860Z,54.63
2022-08-16T21:51:12.255Z,54.96
2022-08-16T21:53:39.295Z,55.00
2022-08-16T21:56:06.373Z,55.06
2022-08-16T21:58:33.434Z,55.44
2022-08-16T22:01:00.755Z,55.63
2022-08-16T22:03:27.940Z,55.53
2022-08-16T22:06:11.678Z,55.86
2022-08-16T22:08:50.274Z,56.10
2022-08-16T22:11:24.164Z,56.38
2022-08-16T22:13:57.430Z,56.33
2022-08-16T22:16:31.117Z,56.65
2022-08-16T22:18:58.238Z,56.77
2022-08-16T22:21:25.246Z,56.49
2022-08-16T22:23:55.279Z,56.85
2022-08-16T22:26:31.796Z,57.01
2022-08-16T22:29:04.812Z,57.06
2022-08-16T22:31:32.385Z,57.22
2022-08-16T22:34:01.905Z,57.36
2022-08-16T22:36:29.828Z,57.37
2022-08-16T22:39:00.249Z,57.49
2022-08-16T22:41:28.121Z,57.40
2022-08-16T22:43:55.262Z,57.45
2022-08-16T22:46:22.156Z,57.59
2022-08-16T22:48:52.084Z,57.68
2022-08-16T22:51:19.822Z,57.61
2022-08-16T22:53:46.769Z,57.65
2022-08-16T22:56:15.703Z,58.02
2022-08-16T22:58:43.003Z,58.01
2022-08-16T23:01:10.322Z,57.98
2022-08-16T23:03:37.472Z,58.18
2022-08-16T23:06:05.180Z,58.28
2022-08-16T23:08:39.483Z,58.18
2022-08-16T23:11:11.278Z,58.52
2022-08-16T23:13:52.416Z,58.31
2022-08-16T23:16:33.459Z,58.32
2022-08-16T23:19:08.434Z,58.39
2022-08-16T23:21:37.320Z,58.50
2022-08-16T23:24:05.449Z,58.50
2022-08-16T23:29:24.523Z,59.01
2022-08-16T23:31:58.058Z,58.83
2022-08-16T23:34:25.907Z,58.98
2022-08-16T23:36:52.772Z,59.07
2022-08-16T23:39:19.628Z,58.94
2022-08-16T23:41:46.646Z,58.96
2022-08-16T23:44:55.743Z,59.19
2022-08-16T23:47:02.416Z,59.30
2022-08-16T23:49:57.261Z,59.22
2022-08-16T23:52:17.117Z,59.41
2022-08-16T23:54:43.994Z,59.30
2022-08-16T23:57:11.050Z,59.25
2022-08-16T23:59:52.207Z,59.15
